createdAt,value
2023-03-18T00:02:33.862Z,100995.62
2023-03-18T00:05:34.823Z,100996.97
2023-03-18T00:08:34.844Z,100995.80
2023-03-18T00:11:36.826Z,100991.80
2023-03-18T00:14:38.980Z,100989.58
2023-03-18T00:17:40.897Z,100985.43
2023-03-18T00:20:48.359Z,100988.27
2023-03-18T00:23:55.939Z,100988.29
2023-03-18T00:26:56.990Z,100991.14
2023-03-18T00:29:57.908Z,100992.59
2023-03-18T00:33:01.488Z,100995.12
2023-03-18T00:36:03.063Z,100995.92
2023-03-18T00:39:10.157Z,100996.84
2023-03-18T00:42:16.942Z,100997.55
2023-03-18T00:45:21.471Z,100993.79
2023-03-18T00:48:26.729Z,100998.79
2023-03-18T00:51:27.913Z,101000.95
2023-03-18T00:54:30.961Z,101004.17
2023-03-18T00:57:31.454Z,101006.27
2023-03-18T01:00:32.178Z,101006.70
2023-03-18T01:03:33.973Z,101007.71
2023-03-18T01:06:46.934Z,101011.86
2023-03-18T01:09:53.985Z,101010.48
2023-03-18T01:12:56.070Z,101011.63
2023-03-18T01:15:55.992Z,101013.88
2023-03-18T01:18:57.966Z,101011.84
2023-03-18T01:22:01.188Z,101011.80
2023-03-18T01:25:05.960Z,101014.58
2023-03-18T01:28:09.057Z,101016.77
2023-03-18T01:31:14.075Z,101018.39
2023-03-18T01:34:16.044Z,101023.34
2023-03-18T01:37:20.076Z,101027.91
2023-03-18T01:40:34.999Z,101026.15
2023-03-18T01:43:39.411Z,101025.33
2023-03-18T01:46:43.053Z,101030.77
2023-03-18T01:49:49.981Z,101024.58
2023-03-18T01:52:53.014Z,101026.35
2023-03-18T01:55:55.410Z,101028.92
2023-03-18T01:58:59.015Z,101031.31
2023-03-18T02:02:18.272Z,101032.51
2023-03-18T02:05:22.128Z,101033.84
2023-03-18T02:08:23.011Z,101035.37
2023-03-18T02:11:29.408Z,101038.48
2023-03-18T02:14:30.291Z,101039.55
2023-03-18T02:17:35.152Z,101040.14
2023-03-18T02:20:43.170Z,101040.84
2023-03-18T02:24:09.114Z,101041.36
2023-03-18T02:27:14.255Z,101050.04
2023-03-18T02:30:20.194Z,101051.62
2023-03-18T02:33:21.128Z,101054.00
2023-03-18T02:36:24.111Z,101060.08
2023-03-18T02:39:33.999Z,101058.89
2023-03-18T02:42:45.093Z,101059.05
2023-03-18T02:45:52.135Z,101059.45
2023-03-18T02:48:53.201Z,101060.42
2023-03-18T02:51:55.223Z,101063.92
2023-03-18T02:55:05.473Z,101063.02
2023-03-18T02:58:11.098Z,101065.00
2023-03-18T03:01:14.439Z,101064.52
2023-03-18T03:04:15.354Z,101066.07
2023-03-18T03:07:21.272Z,101064.40
2023-03-18T03:10:24.640Z,101062.48
2023-03-18T03:13:25.298Z,101064.79
2023-03-18T03:16:27.487Z,101066.89
2023-03-18T03:19:28.176Z,101068.93
2023-03-18T03:22:32.235Z,101069.80
2023-03-18T03:25:34.509Z,101073.61
2023-03-18T03:28:36.203Z,101075.30
2023-03-18T03:31:39.149Z,101080.89
2023-03-18T03:34:41.184Z,101077.52
2023-03-18T03:37:41.204Z,101081.99
2023-03-18T03:40:45.434Z,101083.71
2023-03-18T03:43:45.278Z,101081.42
2023-03-18T03:46:46.561Z,101085.18
2023-03-18T03:49:49.187Z,101081.92
2023-03-18T03:52:50.227Z,101081.75
2023-03-18T03:55:53.280Z,101088.02
2023-03-18T03:58:54.194Z,101084.11
2023-03-18T04:02:07.331Z,101085.42
2023-03-18T04:05:09.296Z,101083.14
2023-03-18T04:08:11.210Z,101086.34
2023-03-18T04:11:13.291Z,101086.13
2023-03-18T04:14:15.218Z,101084.14
2023-03-18T04:17:25.719Z,101086.31
2023-03-18T04:20:27.400Z,101086.34
2023-03-18T04:23:28.340Z,101089.05
2023-03-18T04:26:32.819Z,101093.85
2023-03-18T04:29:38.881Z,101093.09
2023-03-18T04:32:40.415Z,101092.65
2023-03-18T04:35:44.518Z,101092.80
2023-03-18T04:38:45.286Z,101092.41
2023-03-18T04:41:50.385Z,101093.88
2023-03-18T04:44:53.670Z,101092.36
2023-03-18T04:47:58.330Z,101090.13
2023-03-18T04:51:02.364Z,101090.66
2023-03-18T04:54:09.319Z,101092.08
2023-03-18T04:57:12.334Z,101091.29
2023-03-18T05:00:27.958Z,101096.88
2023-03-18T05:03:40.336Z,101095.59
2023-03-18T05:06:44.369Z,101095.28
2023-03-18T05:09:48.364Z,101098.98
2023-03-18T05:12:54.334Z,101104.20
2023-03-18T05:15:59.396Z,101107.86
2023-03-18T05:18:59.396Z,101105.01
2023-03-18T05:22:02.539Z,101104.72
2023-03-18T05:25:03.463Z,101104.69
2023-03-18T05:28:06.716Z,101104.08
2023-03-18T05:31:12.556Z,101108.25
2023-03-18T05:34:16.852Z,101105.61
2023-03-18T05:37:19.803Z,101101.35
2023-03-18T05:40:28.797Z,101102.74
2023-03-18T05:43:36.066Z,101104.42
2023-03-18T05:46:44.375Z,101104.44
2023-03-18T05:49:54.699Z,101108.61
2023-03-18T05:52:55.435Z,101111.95
2023-03-18T05:56:02.447Z,101113.58
2023-03-18T05:59:03.582Z,101115.20
2023-03-18T06:02:14.571Z,101120.63
2023-03-18T06:05:14.404Z,101119.14
2023-03-18T06:08:18.329Z,101117.50
2023-03-18T06:11:25.792Z,101119.63
2023-03-18T06:14:35.468Z,101125.20
2023-03-18T06:17:48.777Z,101128.09
2023-03-18T06:20:51.476Z,101129.09
2023-03-18T06:24:09.714Z,101125.76
2023-03-18T06:27:11.875Z,101122.89
2023-03-18T06:30:23.950Z,101130.67
2023-03-18T06:33:27.491Z,101131.73
2023-03-18T06:36:36.488Z,101137.32
2023-03-18T06:39:44.330Z,101138.48
2023-03-18T06:42:48.613Z,101139.23
2023-03-18T06:46:05.584Z,101136.08
2023-03-18T06:49:12.146Z,101140.53
2023-03-18T06:52:20.585Z,101146.73
2023-03-18T06:55:35.183Z,101143.88
2023-03-18T06:58:39.169Z,101145.29
2023-03-18T07:01:40.603Z,101143.73
2023-03-18T07:04:47.055Z,101142.43
2023-03-18T07:07:50.876Z,101140.90
2023-03-18T07:10:57.068Z,101142.98
2023-03-18T07:13:59.565Z,101141.36
2023-03-18T07:17:04.637Z,101135.00
2023-03-18T07:20:13.109Z,101131.45
2023-03-18T07:23:14.611Z,101132.40
2023-03-18T07:26:19.911Z,101133.61
2023-03-18T07:29:20.262Z,101134.26
2023-03-18T07:32:20.607Z,101136.71
2023-03-18T07:35:31.602Z,101141.05
2023-03-18T07:38:36.103Z,101136.67
2023-03-18T07:41:38.861Z,101136.92
2023-03-18T07:44:46.645Z,101137.39
2023-03-18T07:47:48.684Z,101133.35
2023-03-18T07:50:52.113Z,101137.03
2023-03-18T07:53:52.852Z,101137.04
2023-03-18T07:56:53.862Z,101133.09
2023-03-18T07:59:57.703Z,101126.84
2023-03-18T08:03:24.867Z,101131.65
2023-03-18T08:06:39.740Z,101134.73
2023-03-18T08:09:40.873Z,101137.97
2023-03-18T08:12:52.552Z,101133.52
2023-03-18T08:15:56.026Z,101131.19
2023-03-18T08:18:59.718Z,101132.67
2023-03-18T08:22:03.745Z,101129.46
2023-03-18T08:25:09.686Z,101131.83
2023-03-18T08:28:13.694Z,101126.64
2023-03-18T08:31:24.596Z,101132.94
2023-03-18T08:34:28.050Z,101134.92
2023-03-18T08:37:33.297Z,101135.64
2023-03-18T08:40:42.024Z,101141.23
2023-03-18T08:43:41.746Z,101137.33
2023-03-18T08:46:45.697Z,101134.85
2023-03-18T08:49:46.127Z,101137.17
2023-03-18T08:52:55.112Z,101134.94
2023-03-18T08:55:56.841Z,101133.05
2023-03-18T08:59:04.418Z,101134.36
2023-03-18T09:02:10.078Z,101127.09
2023-03-18T09:05:11.935Z,101122.02
2023-03-18T09:08:13.949Z,101118.77
2023-03-18T09:11:16.019Z,101122.13
2023-03-18T09:14:18.256Z,101114.09
2023-03-18T09:17:43.828Z,101130.08
2023-03-18T09:20:53.481Z,101122.23
2023-03-18T09:24:00.938Z,101134.45
2023-03-18T09:27:11.581Z,101133.42
2023-03-18T09:30:16.910Z,101140.57
2023-03-18T09:33:19.996Z,101138.83
2023-03-18T09:36:25.179Z,101140.86
2023-03-18T09:39:26.897Z,101135.80
2023-03-18T09:42:37.569Z,101133.98
2023-03-18T09:45:44.915Z,101132.25
2023-03-18T09:49:02.183Z,101132.52
2023-03-18T09:52:10.952Z,101126.71
2023-03-18T09:55:15.853Z,101124.69
2023-03-18T09:58:29.798Z,101137.23
2023-03-18T10:01:29.849Z,101134.81
2023-03-18T10:04:36.532Z,101136.61
2023-03-18T10:07:55.488Z,101135.16
2023-03-18T10:11:01.459Z,101125.45
2023-03-18T10:14:09.835Z,101129.35
2023-03-18T10:17:31.179Z,101126.87
2023-03-18T10:20:45.031Z,101126.95
2023-03-18T10:23:59.837Z,101120.58
2023-03-18T10:27:15.887Z,101122.33
2023-03-18T10:30:49.467Z,101118.66
2023-03-18T10:34:00.024Z,101125.98
2023-03-18T10:37:22.267Z,101122.70
2023-03-18T10:40:27.619Z,101122.31
2023-03-18T10:43:34.156Z,101119.59
2023-03-18T10:50:49.343Z,101116.01
2023-03-18T10:54:32.831Z,101107.67
2023-03-18T10:57:43.328Z,101111.95
2023-03-18T11:00:47.198Z,101110.89
2023-03-18T11:03:52.020Z,101111.31
2023-03-18T11:07:02.775Z,101102.85
2023-03-18T11:10:25.338Z,101112.45
2023-03-18T11:13:36.000Z,101112.24
2023-03-18T11:17:05.475Z,101111.57
2023-03-18T11:20:14.189Z,101114.00
2023-03-18T11:23:14.019Z,101110.48
2023-03-18T11:26:21.007Z,101109.05
2023-03-18T11:29:45.626Z,101104.89
2023-03-18T11:32:48.779Z,101100.23
2023-03-18T11:36:10.107Z,101098.05
2023-03-18T11:39:37.629Z,101095.95
2023-03-18T11:42:38.976Z,101089.16
2023-03-18T11:45:42.272Z,101090.90
2023-03-18T11:49:00.364Z,101084.48
2023-03-18T11:52:15.526Z,101080.93
2023-03-18T11:55:24.216Z,101073.92
2023-03-18T11:58:47.932Z,101077.84
2023-03-18T12:01:52.579Z,101077.23
2023-03-18T12:05:23.542Z,101069.89
2023-03-18T12:08:50.632Z,101057.15
2023-03-18T12:12:11.173Z,101049.43
2023-03-18T12:15:36.055Z,101050.31
2023-03-18T12:19:16.978Z,101043.52
2023-03-18T12:22:21.272Z,101032.51
2023-03-18T12:25:44.274Z,101028.37
2023-03-18T12:29:03.337Z,101021.91
2023-03-18T12:32:24.934Z,101015.70
2023-03-18T12:35:57.813Z,101013.29
2023-03-18T12:39:21.128Z,101011.14
2023-03-18T12:42:28.888Z,101007.64
2023-03-18T12:45:47.199Z,101010.84
2023-03-18T12:52:32.250Z,101006.25
2023-03-18T12:56:04.024Z,101001.55
2023-03-18T12:59:53.067Z,101007.30
2023-03-18T13:03:00.212Z,101007.13
2023-03-18T13:06:06.172Z,101005.99
2023-03-18T13:09:41.698Z,101005.83
2023-03-18T13:16:08.564Z,101001.27
2023-03-18T13:19:16.747Z,100995.30
2023-03-18T13:22:43.881Z,100997.67
2023-03-18T13:26:01.299Z,100996.91
2023-03-18T13:29:20.909Z,100989.45
2023-03-18T13:36:24.462Z,100988.71
2023-03-18T13:39:33.428Z,100983.02
2023-03-18T13:42:39.182Z,100985.84
2023-03-18T13:45:47.083Z,100985.24
2023-03-18T13:48:50.799Z,100987.36
2023-03-18T13:51:52.930Z,100985.13
2023-03-18T13:54:54.227Z,100985.78
2023-03-18T13:58:07.603Z,100981.24
2023-03-18T14:05:03.470Z,100983.37
2023-03-18T14:08:26.506Z,100986.80
2023-03-18T14:11:53.013Z,100986.21
2023-03-18T14:15:34.999Z,100983.85
2023-03-18T14:18:45.916Z,100982.41
2023-03-18T14:37:06.349Z,100985.02
2023-03-18T14:40:50.290Z,100980.84
2023-03-18T14:44:48.005Z,100980.35
2023-03-18T14:48:04.811Z,100978.83
2023-03-18T14:54:57.795Z,100976.16
2023-03-18T14:58:14.955Z,100972.11
2023-03-18T15:01:44.697Z,100972.15
2023-03-18T15:05:14.556Z,100972.11
2023-03-18T15:08:26.350Z,100969.74
2023-03-18T15:11:45.210Z,100964.83
2023-03-18T15:15:00.236Z,100971.04
2023-03-18T15:18:11.482Z,100971.30
2023-03-18T15:21:31.034Z,100974.84
2023-03-18T15:24:37.181Z,100973.77
2023-03-18T15:27:43.477Z,100978.27
2023-03-18T15:30:49.072Z,100977.27
2023-03-18T15:34:08.824Z,100978.56
2023-03-18T15:37:35.741Z,100982.53
2023-03-18T15:40:59.595Z,100979.67
2023-03-18T15:44:02.450Z,100983.02
2023-03-18T15:47:09.688Z,100985.97
2023-03-18T15:50:43.965Z,100987.12
2023-03-18T15:54:07.831Z,100985.14
2023-03-18T15:57:25.521Z,100981.88
2023-03-18T16:00:44.761Z,100991.80
2023-03-18T16:03:48.131Z,100995.95
2023-03-18T16:06:52.639Z,100993.23
2023-03-18T16:10:02.363Z,100993.83
2023-03-18T16:13:18.702Z,100991.81
2023-03-18T16:16:22.900Z,100993.05
2023-03-18T16:19:41.701Z,100994.80
2023-03-18T16:22:44.956Z,100999.75
2023-03-18T16:25:49.535Z,100998.86
2023-03-18T16:28:56.189Z,100998.06
2023-03-18T16:32:03.552Z,100999.84
2023-03-18T16:35:03.628Z,101000.67
2023-03-18T16:38:18.988Z,101001.86
2023-03-18T16:41:26.812Z,101005.72
2023-03-18T16:44:42.590Z,101002.66
2023-03-18T16:47:45.942Z,101001.20
2023-03-18T16:50:53.719Z,100999.27
2023-03-18T16:53:54.854Z,101005.08
2023-03-18T16:57:00.756Z,101004.01
2023-03-18T17:00:06.676Z,101002.30
2023-03-18T17:03:07.679Z,101002.06
2023-03-18T17:06:08.725Z,101006.58
2023-03-18T17:09:10.691Z,101008.55
2023-03-18T17:12:13.856Z,101007.25
2023-03-18T17:15:18.840Z,101004.02
2023-03-18T17:18:25.648Z,101003.08
2023-03-18T17:21:36.067Z,101012.59
2023-03-18T17:24:49.689Z,101012.69
2023-03-18T17:27:56.633Z,101014.63
2023-03-18T17:31:03.273Z,101017.87
2023-03-18T17:34:16.194Z,101019.48
2023-03-18T17:37:36.599Z,101019.98
2023-03-18T17:40:43.597Z,101015.67
2023-03-18T17:44:09.615Z,101021.03
2023-03-18T17:47:15.266Z,101021.15
2023-03-18T17:50:31.905Z,101023.50
2023-03-18T17:53:43.522Z,101031.15
2023-03-18T17:56:46.748Z,101032.52
2023-03-18T17:59:49.402Z,101026.37
2023-03-18T18:03:07.757Z,101019.73
2023-03-18T18:06:10.850Z,101019.81
2023-03-18T18:09:12.256Z,101019.85
2023-03-18T18:12:40.822Z,101019.91
2023-03-18T18:15:49.199Z,101019.90
2023-03-18T18:22:32.787Z,101025.02
2023-03-18T18:25:43.623Z,101031.52
2023-03-18T18:28:45.696Z,101032.58
2023-03-18T18:31:54.768Z,101029.97
2023-03-18T18:35:25.775Z,101027.14
2023-03-18T18:38:27.822Z,101032.59
2023-03-18T18:41:34.928Z,101029.98
2023-03-18T18:44:39.763Z,101032.36
2023-03-18T18:47:44.860Z,101031.08
2023-03-18T18:50:49.356Z,101030.90
2023-03-18T18:54:04.309Z,101029.66
2023-03-18T19:00:43.212Z,101029.36
2023-03-18T19:03:51.070Z,101035.29
2023-03-18T19:06:52.694Z,101044.42
2023-03-18T19:10:02.543Z,101038.16
2023-03-18T19:13:07.339Z,101043.81
2023-03-18T19:16:19.484Z,101044.00
2023-03-18T19:19:25.064Z,101044.19
2023-03-18T19:22:37.802Z,101048.77
2023-03-18T19:25:41.087Z,101052.42
2023-03-18T19:28:58.815Z,101050.32
2023-03-18T19:32:00.991Z,101049.83
2023-03-18T19:35:05.625Z,101051.98
2023-03-18T19:38:17.151Z,101050.20
2023-03-18T19:41:23.890Z,101053.41
2023-03-18T19:44:30.901Z,101050.07
2023-03-18T19:47:39.830Z,101048.58
2023-03-18T19:50:40.002Z,101046.45
2023-03-18T19:53:42.883Z,101043.41
2023-03-18T19:56:43.365Z,101038.80
2023-03-18T19:59:45.209Z,101032.45
2023-03-18T20:02:46.068Z,101032.48
2023-03-18T20:05:49.289Z,101034.52
2023-03-18T20:08:59.764Z,101031.94
2023-03-18T20:12:06.236Z,101030.70
2023-03-18T20:15:11.015Z,101027.05
2023-03-18T20:18:13.368Z,101024.44
2023-03-18T20:25:03.758Z,101019.54
2023-03-18T20:28:41.968Z,101021.80
2023-03-18T20:35:19.890Z,101019.20
2023-03-18T20:38:40.417Z,101014.09
2023-03-18T20:41:50.277Z,101013.38
2023-03-18T20:44:59.402Z,101015.18
2023-03-18T20:48:08.961Z,101013.25
2023-03-18T20:51:13.029Z,101012.61
2023-03-18T20:54:20.150Z,101011.22
2023-03-18T20:57:36.767Z,101006.41
2023-03-18T21:00:49.041Z,101006.83
2023-03-18T21:03:54.259Z,101003.98
2023-03-18T21:07:04.941Z,101004.67
2023-03-18T21:10:14.095Z,100996.68
2023-03-18T21:13:25.148Z,100998.40
2023-03-18T21:16:28.568Z,100997.08
2023-03-18T21:19:39.525Z,100995.40
2023-03-18T21:22:55.438Z,100998.04
2023-03-18T21:26:11.597Z,101000.98
2023-03-18T21:29:34.961Z,101002.55
2023-03-18T21:32:44.174Z,101006.33
2023-03-18T21:35:46.152Z,101006.88
2023-03-18T21:38:50.201Z,101004.54
2023-03-18T21:41:52.223Z,101007.48
2023-03-18T21:44:53.263Z,101008.17
2023-03-18T21:47:54.056Z,101008.52
2023-03-18T21:50:56.182Z,101010.80
2023-03-18T21:53:57.072Z,101012.80
2023-03-18T21:56:58.325Z,101012.67
2023-03-18T22:00:01.477Z,101014.77
2023-03-18T22:03:06.337Z,101010.69
2023-03-18T22:06:08.568Z,101007.00
2023-03-18T22:09:13.103Z,101007.36
2023-03-18T22:12:14.108Z,101004.31
2023-03-18T22:15:24.093Z,101008.35
2023-03-18T22:18:25.590Z,101008.27
2023-03-18T22:21:52.206Z,101008.09
2023-03-18T22:24:55.058Z,101007.81
2023-03-18T22:27:55.114Z,101005.80
2023-03-18T22:31:03.362Z,101005.76
2023-03-18T22:34:04.099Z,101003.23
2023-03-18T22:37:04.694Z,101003.53
2023-03-18T22:40:05.113Z,101005.27
2023-03-18T22:43:07.166Z,101007.98
2023-03-18T22:46:08.210Z,101004.98
2023-03-18T22:49:14.278Z,101005.41
2023-03-18T22:52:15.120Z,101007.63
2023-03-18T22:55:15.201Z,101004.79
2023-03-18T22:58:15.137Z,101004.81
2023-03-18T23:01:17.151Z,101002.45
2023-03-18T23:04:19.712Z,100998.50
2023-03-18T23:07:41.878Z,100991.92
2023-03-18T23:10:45.231Z,100989.29
2023-03-18T23:13:51.700Z,100985.39
2023-03-18T23:16:53.189Z,100982.73
2023-03-18T23:20:00.440Z,100981.23
2023-03-18T23:23:01.632Z,100977.33
2023-03-18T23:26:04.163Z,100973.52
2023-03-18T23:29:05.179Z,100972.08
2023-03-18T23:32:08.686Z,100972.08
2023-03-18T23:35:09.166Z,100968.48
2023-03-18T23:38:12.192Z,100965.79
2023-03-18T23:41:13.283Z,100967.26
2023-03-18T23:44:14.241Z,100960.44
2023-03-18T23:47:18.207Z,100958.11
2023-03-18T23:50:21.262Z,100951.48
2023-03-18T23:53:23.296Z,100951.66
2023-03-18T23:56:23.215Z,100945.38
2023-03-18T23:59:24.237Z,100945.60
